createdAt,value
2023-01-31T00:01:40.997Z,5.55
2023-01-31T00:04:12.405Z,4.03
2023-01-31T00:06:42.075Z,5.72
2023-01-31T00:09:12.021Z,6.20
2023-01-31T00:11:40.161Z,6.10
2023-01-31T00:14:10.421Z,6.68
2023-01-31T00:16:39.282Z,7.20
2023-01-31T00:19:07.803Z,6.10
2023-01-31T00:21:37.414Z,6.97
2023-01-31T00:24:06.141Z,7.05
2023-01-31T00:26:36.140Z,7.22
2023-01-31T00:29:06.491Z,7.30
2023-01-31T00:31:36.126Z,8.48
2023-01-31T00:34:04.743Z,7.55
2023-01-31T00:36:34.994Z,8.23
2023-01-31T00:39:07.304Z,7.82
2023-01-31T00:41:37.482Z,8.23
2023-01-31T00:44:06.855Z,5.88
2023-01-31T00:46:35.852Z,7.82
2023-01-31T00:49:04.701Z,6.75
2023-01-31T00:51:32.672Z,7.03
2023-01-31T00:54:04.558Z,8.05
2023-01-31T00:56:32.592Z,6.47
2023-01-31T00:59:00.764Z,6.47
2023-01-31T01:01:30.170Z,6.25
2023-01-31T01:03:59.457Z,6.65
2023-01-31T01:06:28.756Z,7.18
2023-01-31T01:08:57.681Z,6.95
2023-01-31T01:11:29.274Z,7.18
2023-01-31T01:13:58.531Z,6.30
2023-01-31T01:16:31.765Z,7.03
2023-01-31T01:19:01.742Z,6.97
2023-01-31T01:21:32.344Z,7.70
2023-01-31T01:24:02.589Z,5.20
2023-01-31T01:26:34.952Z,5.65
2023-01-31T01:29:05.633Z,5.60
2023-01-31T01:31:34.531Z,5.20
2023-01-31T01:34:05.376Z,5.35
2023-01-31T01:36:34.882Z,5.75
2023-01-31T01:39:03.736Z,6.90
2023-01-31T01:41:34.373Z,6.03
2023-01-31T01:44:05.911Z,5.82
2023-01-31T01:46:37.589Z,5.85
2023-01-31T01:49:13.710Z,4.85
2023-01-31T01:51:43.746Z,5.20
2023-01-31T01:54:16.779Z,5.65
2023-01-31T01:56:52.054Z,7.40
2023-01-31T01:59:24.570Z,5.63
2023-01-31T02:01:53.581Z,6.20
2023-01-31T02:04:29.394Z,6.22
2023-01-31T02:06:57.668Z,7.47
2023-01-31T02:09:35.903Z,5.95
2023-01-31T02:12:08.485Z,5.25
2023-01-31T02:14:37.662Z,5.18
2023-01-31T02:17:05.690Z,5.63
2023-01-31T02:19:42.704Z,5.15
2023-01-31T02:22:21.821Z,3.58
2023-01-31T02:25:34.003Z,4.72
2023-01-31T02:28:55.642Z,4.15
2023-01-31T02:31:52.324Z,4.00
2023-01-31T02:34:30.320Z,4.20
2023-01-31T02:37:10.090Z,5.25
2023-01-31T02:39:44.826Z,4.63
2023-01-31T02:42:22.846Z,4.60
2023-01-31T02:45:02.016Z,4.85
2023-01-31T02:47:42.119Z,5.63
2023-01-31T02:50:20.682Z,3.40
2023-01-31T02:52:53.786Z,4.60
2023-01-31T02:55:43.333Z,6.28
2023-01-31T02:58:14.473Z,5.20
2023-01-31T03:00:46.301Z,4.60
2023-01-31T03:03:21.573Z,4.10
2023-01-31T03:06:27.046Z,4.25
2023-01-31T03:09:03.587Z,4.97
2023-01-31T03:11:53.245Z,6.18
2023-01-31T03:14:29.722Z,5.05
2023-01-31T03:17:21.352Z,4.90
2023-01-31T03:19:56.516Z,6.45
2023-01-31T03:22:28.964Z,5.45
2023-01-31T03:25:00.331Z,5.28
2023-01-31T03:27:30.001Z,4.32
2023-01-31T03:30:06.372Z,5.72
2023-01-31T03:32:39.698Z,5.30
2023-01-31T03:35:09.560Z,5.05
2023-01-31T03:37:42.185Z,5.15
2023-01-31T03:40:21.254Z,4.63
2023-01-31T03:42:55.587Z,5.65
2023-01-31T03:45:31.294Z,4.55
2023-01-31T03:48:03.993Z,5.63
2023-01-31T03:50:40.302Z,4.50
2023-01-31T03:53:11.876Z,4.10
2023-01-31T03:55:47.897Z,4.03
2023-01-31T03:58:21.071Z,4.82
2023-01-31T04:00:50.490Z,4.22
2023-01-31T04:03:25.730Z,5.60
2023-01-31T04:05:54.233Z,3.67
2023-01-31T04:08:23.463Z,3.60
2023-01-31T04:11:04.267Z,4.00
2023-01-31T04:13:32.331Z,3.70
2023-01-31T04:16:00.402Z,3.92
2023-01-31T04:18:28.778Z,5.25
2023-01-31T04:20:56.901Z,3.47
2023-01-31T04:23:26.498Z,4.53
2023-01-31T04:25:55.022Z,3.05
2023-01-31T04:28:24.495Z,4.40
2023-01-31T04:30:54.547Z,4.90
2023-01-31T04:33:23.258Z,4.32
2023-01-31T04:35:52.435Z,4.20
2023-01-31T04:38:20.638Z,3.20
2023-01-31T04:40:48.663Z,4.53
2023-01-31T04:43:16.821Z,2.92
2023-01-31T04:45:46.201Z,2.78
2023-01-31T04:48:14.302Z,4.45
2023-01-31T04:50:42.332Z,3.00
2023-01-31T04:53:10.498Z,3.50
2023-01-31T04:55:38.979Z,3.63
2023-01-31T04:58:07.650Z,2.70
2023-01-31T05:00:36.455Z,3.13
2023-01-31T05:03:06.248Z,3.22
2023-01-31T05:05:36.338Z,3.10
2023-01-31T05:08:05.839Z,2.90
2023-01-31T05:10:36.370Z,2.85
2023-01-31T05:13:05.064Z,2.92
2023-01-31T05:15:33.249Z,2.97
2023-01-31T05:18:04.513Z,3.13
2023-01-31T05:20:39.548Z,3.10
2023-01-31T05:23:08.498Z,2.88
2023-01-31T05:25:37.839Z,2.42
2023-01-31T05:28:06.814Z,3.50
2023-01-31T05:30:35.136Z,3.45
2023-01-31T05:33:03.284Z,4.60
2023-01-31T05:35:31.519Z,3.80
2023-01-31T05:38:00.928Z,3.63
2023-01-31T05:40:28.990Z,3.58
2023-01-31T05:42:57.452Z,3.17
2023-01-31T05:45:25.613Z,3.88
2023-01-31T05:47:53.645Z,3.60
2023-01-31T05:50:22.142Z,7.78
2023-01-31T05:52:53.677Z,8.27
2023-01-31T05:55:23.914Z,3.78
2023-01-31T05:57:53.268Z,4.72
2023-01-31T06:00:21.869Z,6.95
2023-01-31T06:02:50.265Z,4.72
2023-01-31T06:05:19.055Z,3.42
2023-01-31T06:07:47.345Z,4.40
2023-01-31T06:10:15.494Z,4.38
2023-01-31T06:12:44.847Z,3.65
2023-01-31T06:15:13.315Z,4.20
2023-01-31T06:17:41.310Z,4.57
2023-01-31T06:20:10.598Z,3.35
2023-01-31T06:22:38.642Z,3.08
2023-01-31T06:25:07.974Z,3.25
2023-01-31T06:27:36.129Z,3.75
2023-01-31T06:30:06.691Z,3.40
2023-01-31T06:32:34.715Z,3.85
2023-01-31T06:35:03.867Z,3.15
2023-01-31T06:37:31.955Z,3.47
2023-01-31T06:40:00.197Z,3.92
2023-01-31T06:42:28.191Z,2.95
2023-01-31T06:44:56.378Z,3.58
2023-01-31T06:47:25.792Z,3.50
2023-01-31T06:49:53.760Z,3.47
2023-01-31T06:52:21.724Z,4.28
2023-01-31T06:54:49.754Z,4.63
2023-01-31T06:57:17.769Z,3.95
2023-01-31T06:59:46.100Z,4.63
2023-01-31T07:02:14.123Z,4.28
2023-01-31T07:04:43.877Z,4.00
2023-01-31T07:07:11.996Z,3.97
2023-01-31T07:09:40.085Z,4.63
2023-01-31T07:12:08.188Z,5.80
2023-01-31T07:14:36.275Z,5.55
2023-01-31T07:17:04.407Z,4.78
2023-01-31T07:19:32.535Z,4.50
2023-01-31T07:22:01.927Z,5.18
2023-01-31T07:24:30.280Z,4.53
2023-01-31T07:26:58.875Z,4.53
2023-01-31T07:29:26.932Z,4.72
2023-01-31T07:31:56.386Z,5.28
2023-01-31T07:34:24.505Z,4.70
2023-01-31T07:36:52.655Z,4.60
2023-01-31T07:39:22.075Z,4.57
2023-01-31T07:41:50.733Z,5.03
2023-01-31T07:44:18.824Z,5.10
2023-01-31T07:46:46.957Z,4.38
2023-01-31T07:49:15.148Z,5.25
2023-01-31T07:51:43.330Z,5.22
2023-01-31T07:54:12.700Z,5.35
2023-01-31T07:56:42.470Z,4.10
2023-01-31T07:59:10.754Z,4.97
2023-01-31T08:01:56.440Z,4.88
2023-01-31T08:04:24.738Z,3.58
2023-01-31T08:06:55.336Z,5.68
2023-01-31T08:09:24.771Z,4.63
2023-01-31T08:11:54.310Z,5.20
2023-01-31T08:14:25.297Z,4.80
2023-01-31T08:16:54.117Z,4.63
2023-01-31T08:19:22.709Z,4.80
2023-01-31T08:21:51.157Z,6.85
2023-01-31T08:24:19.450Z,4.47
2023-01-31T08:26:47.678Z,5.43
2023-01-31T08:29:17.195Z,4.43
2023-01-31T08:31:45.718Z,6.32
2023-01-31T08:34:14.181Z,5.22
2023-01-31T08:36:42.411Z,4.70
2023-01-31T08:39:10.796Z,5.28
2023-01-31T08:41:40.316Z,4.75
2023-01-31T08:44:08.422Z,5.07
2023-01-31T08:46:38.759Z,5.22
2023-01-31T08:49:08.974Z,4.60
2023-01-31T08:51:37.027Z,5.68
2023-01-31T08:54:05.363Z,5.40
2023-01-31T08:56:33.938Z,4.72
2023-01-31T08:59:02.095Z,4.22
2023-01-31T09:01:30.461Z,5.18
2023-01-31T09:04:00.601Z,5.00
2023-01-31T09:06:29.221Z,4.72
2023-01-31T09:08:58.667Z,6.72
2023-01-31T09:11:30.645Z,6.03
2023-01-31T09:13:59.531Z,5.18
2023-01-31T09:16:27.791Z,4.40
2023-01-31T09:18:57.019Z,5.18
2023-01-31T09:21:26.940Z,6.10
2023-01-31T09:23:59.837Z,5.20
2023-01-31T09:26:28.147Z,5.03
2023-01-31T09:28:57.819Z,5.30
2023-01-31T09:31:26.338Z,5.53
2023-01-31T09:33:55.309Z,4.43
2023-01-31T09:36:25.093Z,5.22
2023-01-31T09:38:57.218Z,4.28
2023-01-31T09:41:32.092Z,5.03
2023-01-31T09:44:03.863Z,5.10
2023-01-31T09:46:37.570Z,5.03
2023-01-31T09:49:09.647Z,6.00
2023-01-31T09:51:40.269Z,5.05
2023-01-31T09:54:20.663Z,4.80
2023-01-31T09:57:01.135Z,4.82
2023-01-31T09:59:39.303Z,5.22
2023-01-31T10:02:23.852Z,3.90
2023-01-31T10:05:04.006Z,4.90
2023-01-31T10:07:37.785Z,5.72
2023-01-31T10:10:17.946Z,5.65
2023-01-31T10:12:51.079Z,5.75
2023-01-31T10:15:29.202Z,5.60
2023-01-31T10:18:00.350Z,4.75
2023-01-31T10:20:35.555Z,6.43
2023-01-31T10:23:08.166Z,5.55
2023-01-31T10:25:44.877Z,5.63
2023-01-31T10:28:17.653Z,5.45
2023-01-31T10:30:51.702Z,8.38
2023-01-31T10:33:29.346Z,5.65
2023-01-31T10:36:02.564Z,5.85
2023-01-31T10:38:34.957Z,6.55
2023-01-31T10:41:14.073Z,6.80
2023-01-31T10:43:48.437Z,5.07
2023-01-31T10:46:16.778Z,6.07
2023-01-31T10:48:48.630Z,5.45
2023-01-31T10:51:30.362Z,6.30
2023-01-31T10:54:20.706Z,6.05
2023-01-31T10:56:50.774Z,7.55
2023-01-31T10:59:26.151Z,8.30
2023-01-31T11:01:54.335Z,7.32
2023-01-31T11:04:26.973Z,10.27
2023-01-31T11:06:55.400Z,6.80
2023-01-31T11:09:25.517Z,7.78
2023-01-31T11:11:59.801Z,6.57
2023-01-31T11:14:29.869Z,7.75
2023-01-31T11:17:01.583Z,9.57
2023-01-31T11:19:36.718Z,6.65
2023-01-31T11:22:05.757Z,6.25
2023-01-31T11:24:36.079Z,6.55
2023-01-31T11:27:08.361Z,7.22
2023-01-31T11:29:43.249Z,6.05
2023-01-31T11:32:19.488Z,7.85
2023-01-31T11:34:58.813Z,7.70
2023-01-31T11:37:27.607Z,7.25
2023-01-31T11:39:57.786Z,7.13
2023-01-31T11:42:27.609Z,6.43
2023-01-31T11:45:00.251Z,6.60
2023-01-31T11:47:42.506Z,6.38
2023-01-31T11:50:21.410Z,5.38
2023-01-31T11:52:56.074Z,5.22
2023-01-31T11:55:24.761Z,4.75
2023-01-31T11:57:59.474Z,5.20
2023-01-31T12:00:30.587Z,5.28
2023-01-31T12:03:08.585Z,3.72
2023-01-31T12:05:40.078Z,4.60
2023-01-31T12:08:30.082Z,5.22
2023-01-31T12:11:08.736Z,5.03
2023-01-31T12:13:49.161Z,3.67
2023-01-31T12:16:21.684Z,4.38
2023-01-31T12:19:02.247Z,7.28
2023-01-31T12:21:41.861Z,4.57
2023-01-31T12:24:19.828Z,4.78
2023-01-31T12:26:52.007Z,4.13
2023-01-31T12:29:42.298Z,3.75
2023-01-31T12:32:25.474Z,4.22
2023-01-31T12:35:18.992Z,4.93
2023-01-31T12:37:57.955Z,4.53
2023-01-31T12:40:44.096Z,5.60
2023-01-31T12:43:22.425Z,4.75
2023-01-31T12:46:07.113Z,4.40
2023-01-31T12:49:02.412Z,5.85
2023-01-31T12:51:40.943Z,5.90
2023-01-31T12:54:24.138Z,5.85
2023-01-31T12:57:05.296Z,4.78
2023-01-31T12:59:46.423Z,5.68
2023-01-31T13:02:36.663Z,5.43
2023-01-31T13:05:13.234Z,5.30
2023-01-31T13:07:46.670Z,5.43
2023-01-31T13:10:30.580Z,5.35
2023-01-31T13:13:00.648Z,6.80
2023-01-31T13:15:33.895Z,5.95
2023-01-31T13:18:06.435Z,5.35
2023-01-31T13:20:39.790Z,6.07
2023-01-31T13:23:13.860Z,6.55
2023-01-31T13:25:46.128Z,7.28
2023-01-31T13:28:19.450Z,7.10
2023-01-31T13:30:53.982Z,7.28
2023-01-31T13:33:33.483Z,6.82
2023-01-31T13:36:11.198Z,7.40
2023-01-31T13:38:43.012Z,7.53
2023-01-31T13:41:18.494Z,5.28
2023-01-31T13:43:46.491Z,6.25
2023-01-31T13:46:17.828Z,6.57
2023-01-31T13:48:53.087Z,6.10
2023-01-31T13:51:26.040Z,6.38
2023-01-31T13:54:00.089Z,5.72
2023-01-31T13:56:31.292Z,5.97
2023-01-31T13:59:00.426Z,6.32
2023-01-31T14:01:32.450Z,6.55
2023-01-31T14:04:28.499Z,6.47
2023-01-31T14:07:21.668Z,6.63
2023-01-31T14:10:29.387Z,6.78
2023-01-31T14:13:41.605Z,5.90
2023-01-31T14:16:35.461Z,6.13
2023-01-31T14:19:03.848Z,5.88
2023-01-31T14:21:55.192Z,6.13
2023-01-31T14:25:05.104Z,6.85
2023-01-31T14:27:37.058Z,5.85
2023-01-31T14:30:31.071Z,6.35
2023-01-31T14:33:24.480Z,5.22
2023-01-31T14:36:17.748Z,5.40
2023-01-31T14:39:16.553Z,5.35
2023-01-31T14:42:10.513Z,5.10
2023-01-31T14:44:52.661Z,4.43
2023-01-31T14:47:36.180Z,4.50
2023-01-31T14:50:47.569Z,4.15
2023-01-31T14:53:36.493Z,5.18
2023-01-31T14:56:21.195Z,3.95
2023-01-31T14:58:49.859Z,3.92
2023-01-31T15:01:21.405Z,3.97
2023-01-31T15:03:52.495Z,4.18
2023-01-31T15:06:25.486Z,4.30
2023-01-31T15:09:47.037Z,3.60
2023-01-31T15:12:52.673Z,3.88
2023-01-31T15:15:28.868Z,2.72
2023-01-31T15:17:57.842Z,3.45
2023-01-31T15:20:31.284Z,3.72
2023-01-31T15:23:05.857Z,3.88
2023-01-31T15:25:36.633Z,3.00
2023-01-31T15:28:06.377Z,3.22
2023-01-31T15:30:37.498Z,3.28
2023-01-31T15:33:10.786Z,2.95
2023-01-31T15:35:47.241Z,3.50
2023-01-31T15:38:23.277Z,3.45
2023-01-31T15:41:07.470Z,4.95
2023-01-31T15:43:38.768Z,3.60
2023-01-31T15:46:24.066Z,3.58
2023-01-31T15:48:52.413Z,5.43
2023-01-31T15:51:21.350Z,4.10
2023-01-31T15:53:49.918Z,5.07
2023-01-31T15:56:22.202Z,5.60
2023-01-31T15:58:52.848Z,4.55
2023-01-31T16:01:22.626Z,4.38
2023-01-31T16:03:53.511Z,5.25
2023-01-31T16:06:27.297Z,6.40
2023-01-31T16:09:01.171Z,4.97
2023-01-31T16:11:33.739Z,7.65
2023-01-31T16:14:04.553Z,4.18
2023-01-31T16:16:35.616Z,5.93
2023-01-31T16:19:05.071Z,5.05
2023-01-31T16:21:39.161Z,4.68
2023-01-31T16:24:15.996Z,3.90
2023-01-31T16:26:55.624Z,4.03
2023-01-31T16:29:26.303Z,4.25
2023-01-31T16:31:56.759Z,3.55
2023-01-31T16:34:28.549Z,4.45
2023-01-31T16:37:00.806Z,4.10
2023-01-31T16:39:34.944Z,4.63
2023-01-31T16:42:04.462Z,4.10
2023-01-31T16:44:36.351Z,3.97
2023-01-31T16:47:07.093Z,3.45
2023-01-31T16:49:37.927Z,4.25
2023-01-31T16:52:17.139Z,2.72
2023-01-31T16:54:50.814Z,3.72
2023-01-31T16:57:25.745Z,3.20
2023-01-31T16:59:54.558Z,3.35
2023-01-31T17:02:26.901Z,3.95
2023-01-31T17:04:57.101Z,3.58
2023-01-31T17:07:27.856Z,3.15
2023-01-31T17:09:58.134Z,4.50
2023-01-31T17:12:28.334Z,7.05
2023-01-31T17:15:00.834Z,4.90
2023-01-31T17:17:37.327Z,5.32
2023-01-31T17:20:06.267Z,4.80
2023-01-31T17:22:34.428Z,5.72
2023-01-31T17:25:02.494Z,4.72
2023-01-31T17:27:30.599Z,4.97
2023-01-31T17:29:58.679Z,5.60
2023-01-31T17:32:27.117Z,5.80
2023-01-31T17:34:56.461Z,7.30
2023-01-31T17:37:31.565Z,8.13
2023-01-31T17:40:00.835Z,7.45
2023-01-31T17:42:29.211Z,6.93
2023-01-31T17:44:57.397Z,9.32
2023-01-31T17:47:27.183Z,10.18
2023-01-31T17:49:57.309Z,10.13
2023-01-31T17:52:25.567Z,11.05
2023-01-31T17:54:53.787Z,10.15
2023-01-31T17:57:21.900Z,10.68
2023-01-31T17:59:50.081Z,11.50
2023-01-31T18:02:18.100Z,11.75
2023-01-31T18:04:46.088Z,10.07
2023-01-31T18:07:17.680Z,12.13
2023-01-31T18:09:45.676Z,12.23
2023-01-31T18:12:13.779Z,10.75
2023-01-31T18:14:41.818Z,10.13
2023-01-31T18:17:10.109Z,10.73
2023-01-31T18:19:38.257Z,11.93
2023-01-31T18:22:06.288Z,10.45
2023-01-31T18:24:35.644Z,10.43
2023-01-31T18:27:03.662Z,9.52
2023-01-31T18:29:31.667Z,10.05
2023-01-31T18:32:02.508Z,10.25
2023-01-31T18:34:32.976Z,9.18
2023-01-31T18:37:01.417Z,10.02
2023-01-31T18:39:29.649Z,10.50
2023-01-31T18:41:59.011Z,11.75
2023-01-31T18:44:27.757Z,10.43
2023-01-31T18:46:55.823Z,9.50
2023-01-31T18:49:24.050Z,9.75
2023-01-31T18:51:52.149Z,12.38
2023-01-31T18:54:42.541Z,10.13
2023-01-31T18:57:12.319Z,11.57
2023-01-31T18:59:40.320Z,12.20
2023-01-31T19:02:10.249Z,15.32
2023-01-31T19:04:38.662Z,11.32
2023-01-31T19:07:07.186Z,13.23
2023-01-31T19:09:35.339Z,13.70
2023-01-31T19:12:03.376Z,13.73
2023-01-31T19:14:32.746Z,14.15
2023-01-31T19:17:00.801Z,11.88
2023-01-31T19:19:28.794Z,15.45
2023-01-31T19:21:57.077Z,13.40
2023-01-31T19:24:25.189Z,13.43
2023-01-31T19:26:53.605Z,13.23
2023-01-31T19:29:21.629Z,13.98
2023-01-31T19:31:51.019Z,12.93
2023-01-31T19:34:19.041Z,14.00
2023-01-31T19:36:48.339Z,13.38
2023-01-31T19:39:16.497Z,13.30
2023-01-31T19:41:44.494Z,13.10
2023-01-31T19:44:12.854Z,15.15
2023-01-31T19:46:40.985Z,12.45
2023-01-31T19:49:10.456Z,13.10
2023-01-31T19:51:38.924Z,10.85
2023-01-31T19:54:07.076Z,11.07
2023-01-31T19:56:35.132Z,11.45
2023-01-31T19:59:03.550Z,13.55
2023-01-31T20:01:31.579Z,13.07
2023-01-31T20:04:00.181Z,13.05
2023-01-31T20:06:32.860Z,13.32
2023-01-31T20:09:04.251Z,13.05
2023-01-31T20:11:33.968Z,13.40
2023-01-31T20:14:02.008Z,12.70
2023-01-31T20:16:30.288Z,13.63
2023-01-31T20:18:58.356Z,13.07
2023-01-31T20:21:26.332Z,12.20
2023-01-31T20:23:56.031Z,13.00
2023-01-31T20:26:24.542Z,12.40
2023-01-31T20:28:52.808Z,13.55
2023-01-31T20:31:21.092Z,14.38
2023-01-31T20:33:50.960Z,14.27
2023-01-31T20:36:19.018Z,15.75
2023-01-31T20:38:47.131Z,12.35
2023-01-31T20:41:16.889Z,13.57
2023-01-31T20:43:45.733Z,11.90
2023-01-31T20:46:15.466Z,18.05
2023-01-31T20:48:43.694Z,15.57
2023-01-31T20:51:12.135Z,13.95
2023-01-31T20:53:40.389Z,13.77
2023-01-31T20:56:10.466Z,13.63
2023-01-31T20:58:42.526Z,13.95
2023-01-31T21:01:11.651Z,12.75
2023-01-31T21:03:39.837Z,13.30
2023-01-31T21:06:08.582Z,13.82
2023-01-31T21:08:37.121Z,13.60
2023-01-31T21:11:07.471Z,12.93
2023-01-31T21:13:35.706Z,14.05
2023-01-31T21:16:07.693Z,14.00
2023-01-31T21:18:37.054Z,11.73
2023-01-31T21:21:07.247Z,12.35
2023-01-31T21:23:36.087Z,9.90
2023-01-31T21:26:05.450Z,8.63
2023-01-31T21:28:34.196Z,6.00
2023-01-31T21:31:03.597Z,6.18
2023-01-31T21:33:33.504Z,6.38
2023-01-31T21:36:08.725Z,5.68
2023-01-31T21:38:36.914Z,4.75
2023-01-31T21:41:23.202Z,4.00
2023-01-31T21:43:51.341Z,4.55
2023-01-31T21:46:19.899Z,5.00
2023-01-31T21:48:49.340Z,4.82
2023-01-31T21:51:18.925Z,5.40
2023-01-31T21:54:09.737Z,3.70
2023-01-31T21:56:37.772Z,3.45
2023-01-31T21:59:05.855Z,3.05
2023-01-31T22:01:35.627Z,3.72
2023-01-31T22:04:05.479Z,2.97
2023-01-31T22:06:36.783Z,2.70
2023-01-31T22:09:07.429Z,3.47
2023-01-31T22:11:35.802Z,3.85
2023-01-31T22:14:04.865Z,2.60
2023-01-31T22:16:33.136Z,2.78
2023-01-31T22:19:01.659Z,2.17
2023-01-31T22:21:32.558Z,2.35
2023-01-31T22:24:02.518Z,1.88
2023-01-31T22:26:32.981Z,2.78
2023-01-31T22:29:02.556Z,1.80
2023-01-31T22:31:31.197Z,3.10
2023-01-31T22:33:59.996Z,1.83
2023-01-31T22:36:28.923Z,2.05
2023-01-31T22:38:58.438Z,2.30
2023-01-31T22:41:26.781Z,2.85
2023-01-31T22:43:55.860Z,2.70
2023-01-31T22:46:25.812Z,3.17
2023-01-31T22:48:54.214Z,3.67
2023-01-31T22:51:24.490Z,3.42
2023-01-31T22:54:18.386Z,4.20
2023-01-31T22:56:46.391Z,4.07
2023-01-31T22:59:14.377Z,4.13
2023-01-31T23:01:42.394Z,5.07
2023-01-31T23:04:11.923Z,4.88
2023-01-31T23:06:39.993Z,6.30
2023-01-31T23:09:08.110Z,4.63
2023-01-31T23:11:37.621Z,5.90
2023-01-31T23:14:05.864Z,4.75
2023-01-31T23:16:51.248Z,4.50
2023-01-31T23:19:19.551Z,5.38
2023-01-31T23:21:49.248Z,4.82
2023-01-31T23:24:18.832Z,4.97
2023-01-31T23:26:48.292Z,6.32
2023-01-31T23:29:16.372Z,5.90
2023-01-31T23:31:44.442Z,6.93
2023-01-31T23:34:12.542Z,8.10
2023-01-31T23:36:40.615Z,7.78
2023-01-31T23:39:08.705Z,7.75
2023-01-31T23:41:36.729Z,8.55
2023-01-31T23:44:06.344Z,9.13
2023-01-31T23:46:34.504Z,9.32
2023-01-31T23:49:02.515Z,9.57
2023-01-31T23:51:31.264Z,10.52
2023-01-31T23:53:59.317Z,9.98
2023-01-31T23:56:27.423Z,10.70
2023-01-31T23:58:55.670Z,12.32
